Time;durP1;ratioP1;P1;durP2;ratioP2;P2;SDS_P1;SDS_P2;PMS_P1;PMS_P2;Temp;Humidity;BMP_temperature;BMP_pressure;BME280_temperature;BME280_humidity;BME280_pressure;Samples;Min_cycle;Max_cycle;Signal;HPM_P1;HPM_P2
2022/04/06 00:00:29;;;;;;;8.70;7.05;;;;;;;8.74;96.35;99807.91;5045754;28;20071;-70
2022/04/06 00:02:54;;;;;;;10.43;8.10;;;;;;;8.77;96.45;99812.84;5041819;28;20030;-70
2022/04/06 00:05:20;;;;;;;10.38;7.78;;;;;;;8.83;96.21;99805.13;5049263;28;20033;-71
2022/04/06 00:07:45;;;;;;;10.40;7.88;;;;;;;8.91;95.50;99805.19;5049894;28;20132;-70
2022/04/06 00:10:12;;;;;;;9.90;6.88;;;;;;;8.94;95.43;99801.41;5026938;28;20414;-70
2022/04/06 00:12:39;;;;;;;9.02;6.68;;;;;;;8.97;95.02;99798.44;5049172;28;20045;-70
2022/04/06 00:15:07;;;;;;;10.88;7.68;;;;;;;8.97;95.15;99800.25;5048553;28;20597;-70
2022/04/06 00:17:33;;;;;;;9.20;7.35;;;;;;;8.99;94.88;99793.84;5049496;28;20037;-70
2022/04/06 00:19:58;;;;;;;8.95;7.47;;;;;;;9.00;94.74;99789.38;5048391;28;20029;-70
2022/04/06 00:22:23;;;;;;;9.65;7.55;;;;;;;8.99;95.28;99788.56;5031148;28;20037;-71
2022/04/06 00:24:49;;;;;;;9.25;7.30;;;;;;;9.04;94.68;99796.00;5028523;28;20052;-70
2022/04/06 00:27:15;;;;;;;8.98;7.07;;;;;;;9.05;94.40;99798.47;5049229;28;20029;-70
2022/04/06 00:29:41;;;;;;;10.02;8.07;;;;;;;8.98;94.61;99801.91;5031518;28;20037;-70
2022/04/06 00:32:06;;;;;;;10.73;8.25;;;;;;;8.89;94.74;99796.59;5045920;28;20033;-70
2022/04/06 00:37:16;;;;;;;10.73;8.43;;;;;;;8.82;95.82;99794.75;5048416;28;20417;-70
2022/04/06 00:39:41;;;;;;;10.00;8.50;;;;;;;8.80;96.15;99783.56;5047927;28;20045;-70
2022/04/06 00:42:06;;;;;;;13.38;9.40;;;;;;;8.81;95.87;99783.38;5047808;28;20041;-70
2022/04/06 00:44:34;;;;;;;11.55;8.77;;;;;;;8.79;96.11;99777.44;5047647;28;20410;-70
2022/04/06 00:47:01;;;;;;;11.23;8.48;;;;;;;8.80;96.11;99773.81;5047884;28;20040;-70
2022/04/06 00:49:26;;;;;;;10.20;8.25;;;;;;;8.81;96.61;99775.47;5048471;28;20387;-70
2022/04/06 00:51:52;;;;;;;10.07;8.00;;;;;;;8.84;95.91;99780.44;5049468;28;20047;-70
2022/04/06 00:54:21;;;;;;;10.73;8.75;;;;;;;8.84;96.31;99769.03;5044386;28;20156;-71
2022/04/06 00:56:48;;;;;;;8.90;7.50;;;;;;;8.86;96.18;99765.25;5051739;28;20383;-72
2022/04/06 00:59:18;;;;;;;9.88;8.18;;;;;;;8.88;95.95;99770.38;5050132;28;20039;-70
2022/04/06 01:01:48;;;;;;;11.07;8.87;;;;;;;8.88;95.89;99765.94;5045090;28;20051;-70
2022/04/06 01:04:15;;;;;;;10.80;8.55;;;;;;;8.89;95.91;99761.47;5047148;28;20279;-70
2022/04/06 01:06:40;;;;;;;10.13;8.20;;;;;;;8.89;95.90;99769.38;5046437;28;20063;-70
2022/04/06 01:09:06;;;;;;;11.02;9.05;;;;;;;8.89;96.13;99759.69;5047155;28;20029;-69
2022/04/06 01:11:31;;;;;;;10.60;8.43;;;;;;;8.92;96.13;99743.53;5046142;28;20029;-70
2022/04/06 01:13:57;;;;;;;11.02;8.75;;;;;;;8.95;96.27;99739.75;5050198;28;20127;-70
2022/04/06 01:16:23;;;;;;;12.27;9.35;;;;;;;8.99;95.65;99735.00;5047270;28;20045;-70
2022/04/06 01:18:48;;;;;;;12.98;8.88;;;;;;;9.03;95.43;99736.31;5030895;28;20393;-70
2022/04/06 01:21:13;;;;;;;11.43;9.07;;;;;;;9.07;95.16;99727.91;5047866;28;20479;-70
2022/04/06 01:23:43;;;;;;;11.52;9.38;;;;;;;9.06;95.65;99730.75;5044582;28;20036;-70
2022/04/06 01:26:09;;;;;;;11.68;8.70;;;;;;;9.09;95.19;99725.13;5047770;28;20442;-70
2022/04/06 01:28:35;;;;;;;11.75;8.70;;;;;;;9.12;95.04;99722.97;5051469;28;20109;-70
2022/04/06 01:31:01;;;;;;;10.43;8.63;;;;;;;9.14;94.83;99721.00;5052848;28;20457;-70
2022/04/06 01:33:26;;;;;;;10.23;8.50;;;;;;;9.18;94.33;99729.44;5035141;28;20093;-70
2022/04/06 01:35:51;;;;;;;11.07;8.68;;;;;;;9.18;94.36;99724.16;5051059;28;20460;-70
2022/04/06 01:38:16;;;;;;;12.65;9.05;;;;;;;9.14;94.40;99723.66;5031437;28;20037;-70
2022/04/06 01:40:42;;;;;;;9.45;8.07;;;;;;;9.08;94.36;99718.19;5051616;28;20041;-70
2022/04/06 01:43:07;;;;;;;11.27;9.00;;;;;;;8.97;95.02;99723.78;5034052;28;20029;-72
2022/04/06 01:45:33;;;;;;;9.77;7.85;;;;;;;8.96;95.40;99717.66;5054813;28;20041;-71
2022/04/06 01:47:58;;;;;;;11.25;8.77;;;;;;;8.94;95.32;99717.03;5045569;28;20100;-70
2022/04/06 01:53:07;;;;;;;11.43;9.00;;;;;;;8.93;95.11;99715.38;5053131;28;20044;-70
2022/04/06 01:55:32;;;;;;;10.90;8.85;;;;;;;8.91;95.46;99719.97;5051251;28;20033;-70
2022/04/06 01:57:59;;;;;;;10.48;8.45;;;;;;;8.94;95.09;99722.31;5050511;28;20037;-70
2022/04/06 02:00:24;;;;;;;10.60;7.97;;;;;;;8.98;95.33;99728.06;5033394;28;20045;-70
2022/04/06 02:02:51;;;;;;;9.13;7.82;;;;;;;8.96;95.05;99717.66;5047770;28;20554;-70
2022/04/06 02:05:17;;;;;;;9.13;7.63;;;;;;;8.95;95.11;99718.66;5046754;28;20040;-70
2022/04/06 02:07:44;;;;;;;11.55;8.18;;;;;;;8.96;95.14;99717.66;5051871;28;20040;-70
2022/04/06 02:10:09;;;;;;;10.63;8.45;;;;;;;8.93;95.15;99710.91;5051720;28;20039;-70
2022/04/06 02:12:35;;;;;;;9.93;7.65;;;;;;;8.95;95.17;99718.66;5062126;28;20041;-70
2022/04/06 02:15:01;;;;;;;10.73;8.50;;;;;;;8.98;94.78;99712.25;5061396;28;20033;-69
2022/04/06 02:17:28;;;;;;;10.93;8.15;;;;;;;8.98;95.26;99713.06;5050585;28;20528;-70
2022/04/06 02:19:53;;;;;;;9.52;8.05;;;;;;;8.99;94.90;99704.19;5050194;28;20032;-69
2022/04/06 02:22:19;;;;;;;7.47;6.45;;;;;;;9.03;94.71;99709.94;5050039;28;20087;-69
2022/04/06 02:24:45;;;;;;;8.90;7.25;;;;;;;9.03;94.80;99709.94;5044689;28;20037;-69
2022/04/06 02:27:10;;;;;;;7.82;6.65;;;;;;;9.09;94.79;99710.13;5044646;28;20401;-69
2022/04/06 02:29:37;;;;;;;10.13;8.20;;;;;;;9.13;94.27;99706.19;5050460;28;20619;-70
2022/04/06 02:32:03;;;;;;;9.40;7.72;;;;;;;9.17;94.08;99703.22;5050169;28;20502;-71
2022/04/06 02:34:29;;;;;;;9.27;7.57;;;;;;;9.18;94.03;99695.16;5055476;28;20044;-70
2022/04/06 02:36:54;;;;;;;9.85;7.25;;;;;;;9.22;93.38;99704.38;5051095;28;20045;-70
2022/04/06 02:39:20;;;;;;;9.38;7.35;;;;;;;9.27;93.36;99706.50;5048913;28;20037;-70
2022/04/06 02:41:45;;;;;;;8.90;7.35;;;;;;;9.23;93.26;99706.03;5048712;28;20069;-70
2022/04/06 02:44:10;;;;;;;9.30;7.32;;;;;;;9.18;93.36;99697.78;5049211;28;20082;-70
2022/04/06 02:46:36;;;;;;;9.05;7.22;;;;;;;9.21;93.33;99701.91;5048596;28;20102;-70
2022/04/06 02:49:01;;;;;;;9.77;7.95;;;;;;;9.22;93.39;99701.72;5048437;28;20531;-70
2022/04/06 02:51:26;;;;;;;10.43;8.05;;;;;;;9.28;93.22;99695.00;5051891;28;20101;-70
2022/04/06 02:53:52;;;;;;;9.00;7.43;;;;;;;9.27;93.19;99698.59;5048741;28;20295;-72
2022/04/06 02:56:17;;;;;;;9.90;7.40;;;;;;;9.29;93.46;99694.81;5055122;28;20055;-71
2022/04/06 02:58:43;;;;;;;9.13;7.03;;;;;;;9.31;93.22;99697.28;5048941;28;20033;-71
2022/04/06 03:01:08;;;;;;;9.80;7.50;;;;;;;9.33;92.90;99692.69;5047781;28;20512;-70
2022/04/06 03:03:33;;;;;;;9.70;7.47;;;;;;;9.31;92.77;99684.91;5049158;28;20287;-70
2022/04/06 03:05:59;;;;;;;9.98;7.72;;;;;;;9.31;92.67;99689.38;5047749;28;20474;-70
2022/04/06 03:08:24;;;;;;;8.02;6.82;;;;;;;9.31;93.04;99686.75;5051826;28;20041;-69
2022/04/06 03:10:49;;;;;;;9.18;6.30;;;;;;;9.30;92.67;99685.91;5050620;28;20067;-70
2022/04/06 03:13:15;;;;;;;9.75;7.25;;;;;;;9.28;93.46;99673.88;5048516;28;20460;-71
2022/04/06 03:15:42;;;;;;;8.25;6.82;;;;;;;9.30;92.93;99672.72;5047426;28;20044;-72
2022/04/06 03:18:07;;;;;;;8.70;7.30;;;;;;;9.29;93.11;99668.44;5048579;28;20510;-72
2022/04/06 03:20:33;;;;;;;8.43;7.07;;;;;;;9.32;92.45;99664.66;5048956;28;20045;-71
2022/04/06 03:22:58;;;;;;;9.40;7.25;;;;;;;9.28;92.96;99660.69;5047807;28;20036;-73
2022/04/06 03:25:23;;;;;;;8.75;7.20;;;;;;;9.28;92.95;99656.25;5048140;28;20482;-72
2022/04/06 03:27:49;;;;;;;9.70;7.50;;;;;;;9.23;92.95;99649.81;5048353;28;20048;-72
2022/04/06 03:30:14;;;;;;;9.98;6.80;;;;;;;9.25;92.94;99655.75;5047427;28;20403;-73
2022/04/06 03:32:40;;;;;;;10.15;8.27;;;;;;;9.24;92.72;99657.53;5046266;28;20121;-72
2022/04/06 03:35:06;;;;;;;9.05;7.07;;;;;;;9.26;92.97;99652.94;5047978;28;20060;-72
2022/04/06 03:37:32;;;;;;;9.88;8.00;;;;;;;9.28;92.79;99652.78;5030543;28;20106;-72
2022/04/06 03:39:58;;;;;;;12.18;7.63;;;;;;;9.28;92.63;99652.78;5046233;28;20394;-72
2022/04/06 03:42:23;;;;;;;10.10;7.60;;;;;;;9.29;92.42;99659.69;5047286;28;20033;-71
2022/04/06 03:44:49;;;;;;;8.43;6.93;;;;;;;9.28;92.86;99663.34;5046480;28;20052;-72
2022/04/06 03:47:15;;;;;;;9.73;6.97;;;;;;;9.31;92.72;99658.53;5048946;28;20133;-70
2022/04/06 03:49:40;;;;;;;9.10;6.95;;;;;;;9.32;92.64;99660.19;5047590;28;20128;-71
2022/04/06 03:52:06;;;;;;;9.52;7.32;;;;;;;9.32;92.74;99657.56;5048029;28;20041;-72
2022/04/06 03:54:31;;;;;;;10.60;7.72;;;;;;;9.30;92.86;99656.91;5030265;28;20086;-72
2022/04/06 03:56:57;;;;;;;9.02;6.93;;;;;;;9.31;92.96;99663.00;5044343;28;20041;-72
2022/04/06 03:59:23;;;;;;;9.07;6.97;;;;;;;9.30;92.71;99661.34;5048366;28;20040;-70
2022/04/06 04:01:48;;;;;;;9.40;7.20;;;;;;;9.27;92.95;99656.41;5042791;28;20431;-70
2022/04/06 04:04:13;;;;;;;10.43;7.45;;;;;;;9.28;93.05;99658.88;5045210;28;20033;-70
2022/04/06 04:06:39;;;;;;;8.77;6.85;;;;;;;9.29;92.91;99655.25;5047889;28;20135;-71
2022/04/06 04:09:04;;;;;;;9.40;7.22;;;;;;;9.26;92.63;99655.56;5047065;28;20082;-72
2022/04/06 04:11:30;;;;;;;8.98;6.70;;;;;;;9.25;92.62;99648.66;5046614;28;20072;-71
2022/04/06 04:13:56;;;;;;;9.15;7.07;;;;;;;9.23;92.64;99650.63;5045950;28;20123;-72
2022/04/06 04:16:21;;;;;;;8.27;6.30;;;;;;;9.20;92.84;99653.63;5047155;28;20119;-72
2022/04/06 04:18:48;;;;;;;8.85;6.38;;;;;;;9.20;92.69;99650.13;5047559;28;20037;-72
2022/04/06 04:21:32;;;;;;;8.05;6.47;;;;;;;9.20;92.77;99650.97;5048214;28;20397;-71
2022/04/06 04:23:57;;;;;;;9.75;7.15;;;;;;;9.19;92.39;99657.22;5043285;28;20068;-72
2022/04/06 04:26:22;;;;;;;8.75;6.78;;;;;;;9.18;92.88;99646.84;5053603;28;20061;-72
2022/04/06 04:28:47;;;;;;;8.30;6.30;;;;;;;9.19;92.64;99648.50;5046080;28;20094;-71
2022/04/06 04:31:13;;;;;;;8.63;6.80;;;;;;;9.19;92.70;99648.50;5049751;28;20029;-72
2022/04/06 04:33:38;;;;;;;9.45;7.10;;;;;;;9.14;93.15;99641.88;5049526;28;20072;-72
2022/04/06 04:36:04;;;;;;;9.23;6.88;;;;;;;9.17;92.86;99643.38;5046960;28;20438;-72
2022/04/06 04:38:29;;;;;;;10.18;6.95;;;;;;;9.18;92.50;99639.75;5030615;28;20280;-72
2022/04/06 04:40:54;;;;;;;8.73;7.10;;;;;;;9.18;92.95;99646.84;5049418;28;20302;-72
2022/04/06 04:43:20;;;;;;;9.40;6.57;;;;;;;9.21;92.48;99643.88;5049125;28;20174;-73
2022/04/06 04:45:46;;;;;;;7.88;6.28;;;;;;;9.18;92.97;99642.41;5041075;28;20035;-72
2022/04/06 04:48:11;;;;;;;9.60;7.13;;;;;;;9.19;92.76;99641.41;5048722;28;20037;-72
2022/04/06 04:50:36;;;;;;;7.85;6.28;;;;;;;9.20;92.81;99645.69;5049896;28;20037;-72
2022/04/06 04:53:02;;;;;;;9.68;7.13;;;;;;;9.19;93.00;99649.31;5049193;28;20124;-70
2022/04/06 04:55:27;;;;;;;8.75;6.72;;;;;;;9.20;92.73;99652.75;5051649;28;20421;-70
2022/04/06 04:57:52;;;;;;;8.90;6.45;;;;;;;9.19;92.85;99649.31;5041539;28;20102;-70
2022/04/06 05:00:18;;;;;;;9.63;7.03;;;;;;;9.18;93.05;99645.03;5057308;28;20037;-70
2022/04/06 05:02:43;;;;;;;9.88;7.13;;;;;;;9.19;93.13;99643.22;5051577;28;20552;-70
2022/04/06 05:05:10;;;;;;;10.10;7.53;;;;;;;9.20;92.92;99640.44;5063590;28;20078;-70
2022/04/06 05:07:38;;;;;;;8.57;6.50;;;;;;;9.22;92.44;99642.88;5051103;28;20037;-70
2022/04/06 05:10:08;;;;;;;8.63;6.30;;;;;;;9.20;92.95;99640.44;5050125;28;20025;-70
2022/04/06 05:12:34;;;;;;;8.70;6.40;;;;;;;9.23;92.69;99639.28;5050948;28;20028;-70
2022/04/06 05:15:00;;;;;;;9.15;6.75;;;;;;;9.23;92.45;99639.28;5034433;28;20029;-70
2022/04/06 05:17:26;;;;;;;7.20;5.78;;;;;;;9.24;92.54;99633.81;5053916;28;20508;-70
2022/04/06 05:19:52;;;;;;;8.35;5.97;;;;;;;9.25;92.61;99634.66;5052257;28;20041;-70
2022/04/06 05:22:17;;;;;;;8.27;6.03;;;;;;;9.25;92.39;99634.66;5032611;28;20041;-70
2022/04/06 05:24:43;;;;;;;9.40;6.60;;;;;;;9.23;92.58;99634.00;5047096;28;20124;-70
2022/04/06 05:27:08;;;;;;;8.38;6.78;;;;;;;9.24;92.41;99636.44;5048035;28;20029;-70
2022/04/06 05:29:34;;;;;;;7.82;5.95;;;;;;;9.25;92.60;99640.75;5050321;28;20468;-70
2022/04/06 05:32:00;;;;;;;9.18;7.18;;;;;;;9.24;92.89;99641.72;5032008;28;20068;-70
2022/04/06 05:34:25;;;;;;;8.63;7.07;;;;;;;9.25;93.19;99632.03;5050007;28;20051;-70
2022/04/06 05:36:50;;;;;;;10.00;6.95;;;;;;;9.23;93.11;99632.16;5050678;28;20054;-70
2022/04/06 05:39:16;;;;;;;8.70;6.60;;;;;;;9.27;93.10;99643.19;5031723;28;20060;-70
2022/04/06 05:41:41;;;;;;;9.85;7.20;;;;;;;9.25;93.43;99634.66;5032499;28;20044;-72
2022/04/06 05:44:06;;;;;;;10.52;7.97;;;;;;;9.29;93.27;99643.88;5049795;28;20040;-70
2022/04/06 05:46:32;;;;;;;11.90;8.10;;;;;;;9.27;93.51;99632.66;5051067;28;20056;-72
2022/04/06 05:48:57;;;;;;;9.93;8.02;;;;;;;9.29;93.82;99634.13;5048524;28;20112;-72
2022/04/06 05:51:22;;;;;;;9.77;7.57;;;;;;;9.34;93.61;99626.56;5056291;28;20848;-72
2022/04/06 05:53:48;;;;;;;11.25;7.68;;;;;;;9.38;93.63;99628.88;5045742;28;20039;-72
2022/04/06 05:56:13;;;;;;;10.43;7.60;;;;;;;9.38;93.65;99624.41;5050050;28;20341;-72
2022/04/06 05:58:39;;;;;;;9.57;7.70;;;;;;;9.39;93.49;99622.59;5050312;28;20029;-72
2022/04/06 06:01:04;;;;;;;10.55;7.60;;;;;;;9.45;93.38;99621.94;5050019;28;20079;-72
2022/04/06 06:03:30;;;;;;;10.38;7.47;;;;;;;9.50;93.15;99632.81;5025933;28;20102;-72
2022/04/06 06:05:55;;;;;;;9.13;7.28;;;;;;;9.55;93.16;99622.56;5048742;28;20029;-72
2022/04/06 06:08:21;;;;;;;10.02;7.22;;;;;;;9.59;92.53;99620.44;5049636;28;20041;-72
2022/04/06 06:10:47;;;;;;;11.50;7.10;;;;;;;9.64;92.53;99618.94;5039869;28;20490;-72
2022/04/06 06:13:12;;;;;;;9.45;7.20;;;;;;;9.67;92.54;99626.50;5042089;28;20033;-73
2022/04/06 06:15:37;;;;;;;16.38;7.38;;;;;;;9.69;91.98;99618.44;5048603;28;20484;-72
2022/04/06 06:18:04;;;;;;;12.57;7.53;;;;;;;9.70;92.43;99622.72;5042106;28;20025;-72
2022/04/06 06:20:29;;;;;;;10.60;7.80;;;;;;;9.71;91.97;99619.91;5045382;28;20391;-72
2022/04/06 06:22:54;;;;;;;8.90;7.05;;;;;;;9.78;91.68;99615.59;5030689;28;20509;-72
2022/04/06 06:25:20;;;;;;;9.70;6.93;;;;;;;9.78;91.64;99614.78;5048139;28;20025;-71
2022/04/06 06:27:46;;;;;;;8.82;7.00;;;;;;;9.80;91.79;99618.09;5039391;28;20029;-72
2022/04/06 06:30:13;;;;;;;9.90;6.47;;;;;;;9.84;91.42;99622.00;5031952;28;20064;-72
2022/04/06 06:32:39;;;;;;;12.85;7.55;;;;;;;9.85;91.05;99618.41;5043318;28;20108;-72
2022/04/06 06:35:05;;;;;;;10.70;7.05;;;;;;;9.86;91.05;99612.09;5027467;28;20389;-72
2022/04/06 06:37:31;;;;;;;10.38;7.30;;;;;;;9.96;90.39;99612.75;5046189;28;20083;-72
2022/04/06 06:39:56;;;;;;;13.00;7.95;;;;;;;10.02;90.36;99613.88;5047680;28;20049;-72
2022/04/06 06:42:22;;;;;;;12.32;7.00;;;;;;;10.06;90.03;99611.72;5048097;28;20060;-72
2022/04/06 06:44:47;;;;;;;10.02;7.00;;;;;;;10.11;90.00;99619.97;5048137;28;20117;-72
2022/04/06 06:47:13;;;;;;;11.20;7.25;;;;;;;10.26;89.28;99617.44;5041123;28;20044;-72
2022/04/06 06:49:45;;;;;;;13.82;7.22;;;;;;;10.30;88.83;99611.66;5047214;28;20824;-72
2022/04/06 06:52:11;;;;;;;9.57;6.57;;;;;;;10.35;88.78;99617.25;5048169;28;20540;-72
2022/04/06 06:54:37;;;;;;;13.00;6.93;;;;;;;10.45;88.67;99618.84;5028345;28;20041;-72
2022/04/06 06:57:03;;;;;;;10.50;6.97;;;;;;;10.54;88.05;99615.19;5049775;28;20264;-71
2022/04/06 06:59:28;;;;;;;11.52;6.15;;;;;;;10.69;88.08;99618.72;5048057;28;20274;-72
2022/04/06 07:01:53;;;;;;;10.27;6.50;;;;;;;10.78;87.31;99612.38;5046886;28;20041;-72
2022/04/06 07:04:22;;;;;;;7.78;6.35;;;;;;;10.86;86.89;99611.47;5046281;28;20071;-72
2022/04/06 07:06:47;;;;;;;7.93;5.82;;;;;;;10.90;86.69;99607.50;5043792;28;20037;-72
2022/04/06 07:09:12;;;;;;;9.10;6.38;;;;;;;11.00;86.46;99618.66;5044555;28;20091;-72
2022/04/06 07:11:38;;;;;;;10.43;6.15;;;;;;;11.08;85.94;99612.47;5028363;28;20037;-72
2022/04/06 07:14:04;;;;;;;12.10;6.32;;;;;;;11.13;85.36;99604.84;5047091;28;20445;-72
2022/04/06 07:16:29;;;;;;;7.38;5.63;;;;;;;11.14;84.94;99606.47;5046709;28;20037;-70
2022/04/06 07:18:54;;;;;;;8.68;5.47;;;;;;;11.20;84.68;99610.22;5048162;28;20098;-72
2022/04/06 07:21:20;;;;;;;8.25;5.63;;;;;;;11.26;84.24;99609.53;5047829;28;20036;-70
2022/04/06 07:23:46;;;;;;;8.43;5.38;;;;;;;11.29;83.99;99598.56;5047551;28;20029;-70
2022/04/06 07:26:13;;;;;;;10.50;5.72;;;;;;;11.38;83.45;99601.97;5045981;28;20040;-70
2022/04/06 07:28:39;;;;;;;11.70;6.28;;;;;;;11.36;83.23;99607.44;5046118;28;20490;-70
2022/04/06 07:31:04;;;;;;;7.15;5.18;;;;;;;11.27;83.13;99605.88;5029164;28;20036;-71
2022/04/06 07:33:30;;;;;;;13.35;6.18;;;;;;;11.23;83.13;99602.78;5046248;28;20036;-71
2022/04/06 07:35:55;;;;;;;6.75;5.20;;;;;;;11.21;83.65;99596.00;5046542;28;20056;-71
2022/04/06 07:38:20;;;;;;;6.63;5.53;;;;;;;11.21;83.60;99604.78;5046708;28;20044;-70
2022/04/06 07:40:46;;;;;;;9.90;5.70;;;;;;;11.33;83.14;99599.06;5024790;28;20056;-70
2022/04/06 07:43:12;;;;;;;7.78;5.22;;;;;;;11.37;83.18;99597.69;5036353;28;20037;-71
2022/04/06 07:45:37;;;;;;;6.15;4.97;;;;;;;11.42;82.61;99587.41;5045470;28;20040;-70
2022/04/06 07:48:06;;;;;;;6.68;4.60;;;;;;;11.49;82.71;99598.91;5043006;28;20036;-70
2022/04/06 07:50:31;;;;;;;5.40;4.40;;;;;;;11.52;81.83;99581.84;5042046;28;20197;-70
2022/04/06 07:52:56;;;;;;;8.90;4.70;;;;;;;11.55;81.86;99584.94;5045088;28;20044;-70
2022/04/06 07:55:22;;;;;;;9.05;4.75;;;;;;;11.62;81.12;99596.44;5042236;28;20136;-70
2022/04/06 07:57:47;;;;;;;7.07;4.70;;;;;;;11.59;81.02;99588.88;5045198;28;20063;-70
2022/04/06 08:00:18;;;;;;;7.03;4.65;;;;;;;11.63;80.87;99595.44;5047028;28;20082;-70
2022/04/06 08:02:48;;;;;;;8.10;4.45;;;;;;;11.73;80.86;99583.75;5043400;28;20041;-69
2022/04/06 08:05:14;;;;;;;7.60;4.97;;;;;;;11.83;80.43;99582.47;5048903;28;20044;-72
2022/04/06 08:07:43;;;;;;;7.70;4.60;;;;;;;12.03;80.23;99585.41;5042742;28;20497;-70
2022/04/06 08:10:11;;;;;;;5.88;4.45;;;;;;;12.03;79.50;99574.00;5041835;28;20031;-70
2022/04/06 08:12:37;;;;;;;8.85;4.30;;;;;;;12.04;79.70;99586.25;5046068;28;20029;-70
2022/04/06 08:15:03;;;;;;;6.80;4.60;;;;;;;12.07;79.78;99573.44;5005105;28;1104489;-70
2022/04/06 08:17:37;;;;;;;6.07;4.05;;;;;;;12.05;79.44;99574.63;5049050;28;20364;-70
2022/04/06 08:20:04;;;;;;;5.88;4.38;;;;;;;12.04;79.44;99580.97;5046542;28;20061;-71
2022/04/06 08:22:30;;;;;;;7.95;4.30;;;;;;;12.11;79.31;99587.97;5044234;28;20398;-70
2022/04/06 08:24:56;;;;;;;5.85;4.00;;;;;;;12.17;78.73;99581.09;5047087;28;20025;-70
2022/04/06 08:27:21;;;;;;;6.22;3.75;;;;;;;12.30;76.96;99580.47;5046143;28;20048;-70
2022/04/06 08:29:46;;;;;;;5.43;3.10;;;;;;;12.42;75.24;99578.97;5029263;28;20033;-70
2022/04/06 08:32:14;;;;;;;4.78;3.00;;;;;;;12.64;75.61;99579.81;5044396;28;20493;-70
2022/04/06 08:34:39;;;;;;;4.57;2.60;;;;;;;12.96;75.69;99586.44;5044891;28;20037;-73
2022/04/06 08:37:04;;;;;;;3.70;2.15;;;;;;;13.28;74.62;99584.28;5047693;28;20629;-70
2022/04/06 08:39:30;;;;;;;4.65;2.65;;;;;;;13.48;73.42;99570.34;5051340;28;20041;-70
2022/04/06 08:41:55;;;;;;;5.05;2.60;;;;;;;13.76;72.86;99573.78;5050848;28;20043;-70
2022/04/06 08:44:20;;;;;;;3.88;2.40;;;;;;;13.95;72.28;99579.41;5048496;28;20071;-70
2022/04/06 08:46:50;;;;;;;3.35;2.22;;;;;;;14.09;71.04;99575.78;5050839;28;20033;-70
2022/04/06 08:49:16;;;;;;;5.80;2.50;;;;;;;14.03;68.60;99572.06;5034729;28;20074;-70
2022/04/06 08:51:44;;;;;;;3.85;2.03;;;;;;;14.07;68.24;99575.16;5053351;28;20052;-70
2022/04/06 08:54:10;;;;;;;5.35;2.50;;;;;;;13.89;65.90;99577.53;5053063;28;20025;-71
2022/04/06 08:56:35;;;;;;;8.10;2.63;;;;;;;13.76;66.02;99579.09;5052137;28;20063;-70
2022/04/06 08:59:01;;;;;;;4.50;2.80;;;;;;;13.61;67.44;99581.06;5052344;28;20068;-70
2022/04/06 09:01:31;;;;;;;5.57;3.80;;;;;;;13.53;68.37;99576.69;5050357;28;20162;-70
2022/04/06 09:03:58;;;;;;;5.35;3.95;;;;;;;13.49;68.79;99577.28;5045249;28;20029;-71
2022/04/06 09:06:25;;;;;;;5.32;3.63;;;;;;;13.62;68.79;99574.72;5046521;28;20158;-71
2022/04/06 09:08:50;;;;;;;6.20;3.47;;;;;;;13.52;68.84;99585.69;5053107;28;20117;-70
2022/04/06 09:11:18;;;;;;;6.50;3.50;;;;;;;13.75;68.58;99582.78;5051114;28;20060;-71
2022/04/06 09:13:46;;;;;;;6.07;3.38;;;;;;;14.16;67.75;99576.63;5052981;28;20039;-71
2022/04/06 09:16:17;;;;;;;5.63;3.40;;;;;;;14.15;67.26;99574.16;5051307;28;20397;-71
2022/04/06 09:18:44;;;;;;;5.20;3.53;;;;;;;14.28;66.97;99571.56;5051052;28;20053;-71
2022/04/06 09:21:15;;;;;;;5.50;3.80;;;;;;;15.03;66.13;99582.19;5051199;28;20096;-71
2022/04/06 09:23:41;;;;;;;;;;;;;;;15.07;64.08;99575.44;5049263;28;20513;-71
2022/04/06 09:26:08;;;;;;;6.33;3.70;;;;;;;14.81;64.00;99574.38;5049888;28;19986;-71
2022/04/06 09:28:48;;;;;;;5.78;3.80;;;;;;;14.57;64.91;99578.44;5050217;28;20278;-70
2022/04/06 09:31:15;;;;;;;4.63;3.33;;;;;;;15.34;63.33;99576.25;5052758;28;20120;-70
2022/04/06 09:33:43;;;;;;;4.53;2.88;;;;;;;15.44;63.81;99567.81;5056444;28;20036;-71
2022/04/06 09:36:19;;;;;;;4.47;2.90;;;;;;;15.47;63.05;99570.91;5031496;28;20036;-70
2022/04/06 09:38:49;;;;;;;4.60;2.42;;;;;;;15.54;61.40;99562.06;5049603;28;20032;-70
2022/04/06 09:41:15;;;;;;;7.50;3.10;;;;;;;15.44;60.01;99563.31;5031895;28;20528;-70
2022/04/06 09:43:44;;;;;;;4.15;2.58;;;;;;;15.56;60.02;99557.34;5049319;28;20040;-71
2022/04/06 09:49:04;;;;;;;3.78;2.20;;;;;;;18.19;55.62;99551.44;5047981;28;20044;-71
2022/04/06 09:51:30;;;;;;;6.43;2.45;;;;;;;18.78;52.59;99549.00;5056467;28;20032;-70
2022/04/06 09:53:55;;;;;;;4.15;2.67;;;;;;;18.55;50.85;99546.22;5048226;28;20055;-71
2022/04/06 09:56:21;;;;;;;4.72;1.85;;;;;;;20.05;50.74;99531.47;5031817;28;20083;-71
2022/04/06 09:58:48;;;;;;;4.30;2.30;;;;;;;20.91;44.64;99531.44;5028675;28;20045;-71
2022/04/06 10:01:14;;;;;;;3.65;1.67;;;;;;;21.89;45.44;99540.91;5044063;28;20398;-71
2022/04/06 10:03:43;;;;;;;3.13;1.60;;;;;;;21.58;43.73;99529.75;5031627;28;20037;-72
2022/04/06 10:06:09;;;;;;;3.17;1.60;;;;;;;21.34;44.25;99524.56;5046913;28;20416;-71
2022/04/06 10:08:35;;;;;;;2.90;1.55;;;;;;;21.87;43.46;99527.69;5046863;28;20029;-71
2022/04/06 10:11:01;;;;;;;5.57;1.88;;;;;;;20.89;41.64;99519.31;5047626;28;20036;-71
2022/04/06 10:13:27;;;;;;;4.60;1.67;;;;;;;21.72;40.23;99522.94;5049204;28;20124;-71
2022/04/06 10:15:54;;;;;;;2.40;1.23;;;;;;;21.85;40.54;99522.56;5050028;28;20732;-71
2022/04/06 10:18:19;;;;;;;4.55;1.50;;;;;;;20.77;41.94;99520.19;5047821;28;20029;-71
2022/04/06 10:21:00;;;;;;;3.92;1.70;;;;;;;19.69;41.42;99520.03;5045596;28;20081;-71
2022/04/06 10:23:44;;;;;;;3.00;1.70;;;;;;;18.87;42.81;99506.59;5047481;28;20575;-71
2022/04/06 10:26:45;;;;;;;5.75;2.35;;;;;;;18.15;44.28;99512.78;5046794;28;20444;-71
2022/04/06 10:29:10;;;;;;;5.25;2.60;;;;;;;17.30;45.96;99507.34;4998698;28;20029;-71
2022/04/06 10:31:36;;;;;;;5.25;2.33;;;;;;;17.17;46.27;99501.09;5045897;28;20140;-71
2022/04/06 10:34:37;;;;;;;5.75;2.30;;;;;;;17.13;47.24;99499.91;5046436;28;20037;-71
2022/04/06 10:37:16;;;;;;;5.78;2.15;;;;;;;17.00;47.94;99493.88;5043196;28;20524;-71
2022/04/06 10:39:59;;;;;;;5.20;2.13;;;;;;;16.70;48.31;99499.81;5043619;28;20029;-71
2022/04/06 10:42:27;;;;;;;4.10;2.22;;;;;;;16.49;49.00;99491.16;5049304;28;20037;-71
2022/04/06 10:44:53;;;;;;;4.50;2.03;;;;;;;17.02;49.17;99489.13;5046516;28;20532;-71
2022/04/06 10:47:20;;;;;;;4.50;2.28;;;;;;;17.91;47.53;99498.47;5049160;28;20056;-72
2022/04/06 10:50:08;;;;;;;6.13;2.28;;;;;;;18.55;44.51;99490.00;5052662;28;20046;-73
2022/04/06 10:52:33;;;;;;;5.60;2.13;;;;;;;18.63;45.03;99484.28;5050235;28;20128;-71
2022/04/06 10:55:07;;;;;;;2.90;1.50;;;;;;;18.94;44.52;99504.63;5048925;28;20037;-71
2022/04/06 10:57:56;;;;;;;4.35;1.83;;;;;;;18.16;45.23;99498.38;5045493;28;20047;-71
2022/04/06 11:00:22;;;;;;;4.22;1.85;;;;;;;17.56;45.87;99493.69;5043710;28;20145;-71
2022/04/06 11:02:50;;;;;;;4.95;2.22;;;;;;;17.12;46.27;99484.91;5049067;28;20574;-71
2022/04/06 11:05:41;;;;;;;5.95;2.30;;;;;;;16.93;46.87;99491.25;5049249;28;20060;-71
2022/04/06 11:10:50;;;;;;;4.22;1.95;;;;;;;19.91;41.89;99495.25;5046510;28;20523;-71
2022/04/06 11:13:25;;;;;;;3.35;1.63;;;;;;;19.50;41.45;99492.50;5044656;28;20144;-71
2022/04/06 11:15:51;;;;;;;3.78;1.70;;;;;;;18.84;42.68;99491.81;5043643;28;20033;-71
2022/04/06 11:18:46;;;;;;;3.30;1.88;;;;;;;19.23;40.60;99489.47;5046351;28;20045;-71
2022/04/06 11:21:14;;;;;;;3.35;1.83;;;;;;;19.71;41.34;99488.41;5047047;28;20399;-71
2022/04/06 11:23:39;;;;;;;3.67;1.45;;;;;;;19.98;40.35;99479.00;5045033;28;20098;-71
2022/04/06 11:26:04;;;;;;;3.92;1.80;;;;;;;19.63;41.06;99482.56;5029687;28;20355;-71
2022/04/06 11:28:30;;;;;;;3.92;1.90;;;;;;;18.88;42.15;99481.47;5051305;28;20036;-71
2022/04/06 11:30:56;;;;;;;2.97;1.60;;;;;;;18.58;43.16;99479.63;5048327;28;20578;-71
2022/04/06 11:33:21;;;;;;;3.55;1.83;;;;;;;18.36;43.64;99474.00;5048530;28;20044;-71
2022/04/06 11:35:46;;;;;;;4.15;1.65;;;;;;;18.09;44.64;99475.41;5042390;28;20041;-71
2022/04/06 11:38:12;;;;;;;2.33;1.50;;;;;;;19.25;43.62;99473.19;5046171;28;20060;-71
2022/04/06 11:40:39;;;;;;;4.10;2.00;;;;;;;19.75;41.93;99467.28;5047870;28;20041;-71
2022/04/06 11:43:05;;;;;;;4.57;2.30;;;;;;;19.16;42.37;99467.34;5047133;28;20037;-71
2022/04/06 11:45:37;;;;;;;4.57;1.70;;;;;;;19.02;43.77;99460.59;5048300;28;20037;-71